sensor_id;sensor_type;location;lat;lon;timestamp;P1;durP1;ratioP1;P2;durP2;ratioP2
22490;SDS011;11412;50.802;4.350;2024-01-11T00:01:09;28.73;;;16.80;;
22490;SDS011;11412;50.802;4.350;2024-01-11T00:03:38;25.67;;;15.98;;
22490;SDS011;11412;50.802;4.350;2024-01-11T00:06:03;27.52;;;15.55;;
22490;SDS011;11412;50.802;4.350;2024-01-11T00:08:29;31.13;;;16.33;;
22490;SDS011;11412;50.802;4.350;2024-01-11T00:10:55;30.65;;;16.30;;
22490;SDS011;11412;50.802;4.350;2024-01-11T00:13:21;28.45;;;17.17;;
22490;SDS011;11412;50.802;4.350;2024-01-11T00:15:46;30.98;;;17.17;;
22490;SDS011;11412;50.802;4.350;2024-01-11T00:18:12;26.40;;;15.80;;
22490;SDS011;11412;50.802;4.350;2024-01-11T00:20:38;34.53;;;17.35;;
22490;SDS011;11412;50.802;4.350;2024-01-11T00:23:03;29.63;;;16.35;;
22490;SDS011;11412;50.802;4.350;2024-01-11T00:25:29;31.88;;;16.65;;
22490;SDS011;11412;50.802;4.350;2024-01-11T00:27:55;33.90;;;16.85;;
22490;SDS011;11412;50.802;4.350;2024-01-11T00:30:20;25.52;;;16.27;;
22490;SDS011;11412;50.802;4.350;2024-01-11T00:32:47;28.08;;;16.02;;
22490;SDS011;11412;50.802;4.350;2024-01-11T00:35:13;28.02;;;16.52;;
22490;SDS011;11412;50.802;4.350;2024-01-11T00:37:38;28.63;;;16.13;;
22490;SDS011;11412;50.802;4.350;2024-01-11T00:40:04;28.73;;;16.45;;
22490;SDS011;11412;50.802;4.350;2024-01-11T00:42:31;29.80;;;16.70;;
22490;SDS011;11412;50.802;4.350;2024-01-11T00:44:56;32.30;;;17.10;;
22490;SDS011;11412;50.802;4.350;2024-01-11T00:47:22;29.63;;;16.70;;
22490;SDS011;11412;50.802;4.350;2024-01-11T00:49:48;30.60;;;17.60;;
22490;SDS011;11412;50.802;4.350;2024-01-11T00:52:13;29.13;;;16.70;;
22490;SDS011;11412;50.802;4.350;2024-01-11T00:54:39;34.28;;;18.08;;
22490;SDS011;11412;50.802;4.350;2024-01-11T00:57:05;27.75;;;16.25;;
22490;SDS011;11412;50.802;4.350;2024-01-11T00:59:31;34.35;;;17.95;;
22490;SDS011;11412;50.802;4.350;2024-01-11T01:01:57;25.52;;;15.27;;
22490;SDS011;11412;50.802;4.350;2024-01-11T01:04:23;34.22;;;16.77;;
22490;SDS011;11412;50.802;4.350;2024-01-11T01:06:49;31.70;;;17.00;;
22490;SDS011;11412;50.802;4.350;2024-01-11T01:09:14;34.25;;;17.23;;
22490;SDS011;11412;50.802;4.350;2024-01-11T01:11:40;28.90;;;16.70;;
22490;SDS011;11412;50.802;4.350;2024-01-11T01:14:06;34.40;;;17.27;;
22490;SDS011;11412;50.802;4.350;2024-01-11T01:16:31;32.22;;;16.08;;
22490;SDS011;11412;50.802;4.350;2024-01-11T01:18:57;27.83;;;16.15;;
22490;SDS011;11412;50.802;4.350;2024-01-11T01:21:23;31.02;;;16.85;;
22490;SDS011;11412;50.802;4.350;2024-01-11T01:23:49;32.38;;;17.45;;
22490;SDS011;11412;50.802;4.350;2024-01-11T01:26:14;28.48;;;16.63;;
22490;SDS011;11412;50.802;4.350;2024-01-11T01:28:40;30.67;;;16.25;;
22490;SDS011;11412;50.802;4.350;2024-01-11T01:31:06;30.80;;;17.75;;
22490;SDS011;11412;50.802;4.350;2024-01-11T01:33:31;31.58;;;16.02;;
22490;SDS011;11412;50.802;4.350;2024-01-11T01:35:57;30.60;;;16.60;;
22490;SDS011;11412;50.802;4.350;2024-01-11T01:38:23;30.77;;;16.60;;
22490;SDS011;11412;50.802;4.350;2024-01-11T01:40:48;29.77;;;17.35;;
22490;SDS011;11412;50.802;4.350;2024-01-11T01:43:14;28.70;;;16.33;;
22490;SDS011;11412;50.802;4.350;2024-01-11T01:45:40;36.28;;;17.83;;
22490;SDS011;11412;50.802;4.350;2024-01-11T01:48:06;29.67;;;16.42;;
22490;SDS011;11412;50.802;4.350;2024-01-11T01:50:32;29.00;;;16.20;;
22490;SDS011;11412;50.802;4.350;2024-01-11T01:52:58;28.98;;;16.80;;
22490;SDS011;11412;50.802;4.350;2024-01-11T01:55:25;28.88;;;16.92;;
22490;SDS011;11412;50.802;4.350;2024-01-11T01:57:52;33.05;;;17.45;;
22490;SDS011;11412;50.802;4.350;2024-01-11T02:00:19;29.58;;;17.60;;
22490;SDS011;11412;50.802;4.350;2024-01-11T02:02:45;28.77;;;17.02;;
22490;SDS011;11412;50.802;4.350;2024-01-11T02:05:15;30.58;;;16.83;;
22490;SDS011;11412;50.802;4.350;2024-01-11T02:07:42;30.75;;;16.38;;
22490;SDS011;11412;50.802;4.350;2024-01-11T02:10:09;32.92;;;17.88;;
22490;SDS011;11412;50.802;4.350;2024-01-11T02:12:35;28.33;;;16.80;;
22490;SDS011;11412;50.802;4.350;2024-01-11T02:15:02;30.33;;;16.75;;
22490;SDS011;11412;50.802;4.350;2024-01-11T02:17:28;35.20;;;17.27;;
22490;SDS011;11412;50.802;4.350;2024-01-11T02:19:55;27.50;;;16.73;;
22490;SDS011;11412;50.802;4.350;2024-01-11T02:22:24;27.63;;;17.17;;
22490;SDS011;11412;50.802;4.350;2024-01-11T02:25:01;32.13;;;17.95;;
22490;SDS011;11412;50.802;4.350;2024-01-11T02:27:27;32.30;;;16.70;;
22490;SDS011;11412;50.802;4.350;2024-01-11T02:29:53;29.45;;;17.13;;
22490;SDS011;11412;50.802;4.350;2024-01-11T02:32:19;28.80;;;16.83;;
22490;SDS011;11412;50.802;4.350;2024-01-11T02:34:45;29.77;;;16.92;;
22490;SDS011;11412;50.802;4.350;2024-01-11T02:37:11;34.15;;;17.65;;
22490;SDS011;11412;50.802;4.350;2024-01-11T02:39:37;29.73;;;15.80;;
22490;SDS011;11412;50.802;4.350;2024-01-11T02:42:03;31.60;;;18.05;;
22490;SDS011;11412;50.802;4.350;2024-01-11T02:44:29;28.40;;;16.80;;
22490;SDS011;11412;50.802;4.350;2024-01-11T02:46:55;30.52;;;17.40;;
22490;SDS011;11412;50.802;4.350;2024-01-11T02:49:20;30.00;;;16.52;;
22490;SDS011;11412;50.802;4.350;2024-01-11T02:51:46;31.77;;;17.25;;
22490;SDS011;11412;50.802;4.350;2024-01-11T02:54:12;33.20;;;16.65;;
22490;SDS011;11412;50.802;4.350;2024-01-11T02:56:38;30.55;;;17.48;;
22490;SDS011;11412;50.802;4.350;2024-01-11T02:59:03;30.63;;;17.55;;
22490;SDS011;11412;50.802;4.350;2024-01-11T03:01:29;29.45;;;17.02;;
22490;SDS011;11412;50.802;4.350;2024-01-11T03:03:55;30.42;;;17.55;;
22490;SDS011;11412;50.802;4.350;2024-01-11T03:06:22;30.88;;;17.73;;
22490;SDS011;11412;50.802;4.350;2024-01-11T03:08:48;31.20;;;15.98;;
22490;SDS011;11412;50.802;4.350;2024-01-11T03:11:14;29.52;;;17.35;;
22490;SDS011;11412;50.802;4.350;2024-01-11T03:13:41;29.83;;;17.70;;
22490;SDS011;11412;50.802;4.350;2024-01-11T03:16:07;32.63;;;17.95;;
22490;SDS011;11412;50.802;4.350;2024-01-11T03:18:32;28.05;;;17.52;;
22490;SDS011;11412;50.802;4.350;2024-01-11T03:20:58;31.17;;;18.02;;
22490;SDS011;11412;50.802;4.350;2024-01-11T03:23:24;28.02;;;17.73;;
22490;SDS011;11412;50.802;4.350;2024-01-11T03:25:50;29.90;;;17.75;;
22490;SDS011;11412;50.802;4.350;2024-01-11T03:28:15;28.70;;;16.88;;
22490;SDS011;11412;50.802;4.350;2024-01-11T03:30:41;29.90;;;17.33;;
22490;SDS011;11412;50.802;4.350;2024-01-11T03:33:07;29.98;;;17.38;;
22490;SDS011;11412;50.802;4.350;2024-01-11T03:35:32;30.65;;;17.75;;
22490;SDS011;11412;50.802;4.350;2024-01-11T03:37:58;30.58;;;18.25;;
22490;SDS011;11412;50.802;4.350;2024-01-11T03:40:24;30.13;;;16.95;;
22490;SDS011;11412;50.802;4.350;2024-01-11T03:42:49;25.90;;;16.27;;
22490;SDS011;11412;50.802;4.350;2024-01-11T03:45:17;29.25;;;17.77;;
22490;SDS011;11412;50.802;4.350;2024-01-11T03:47:46;33.40;;;17.58;;
22490;SDS011;11412;50.802;4.350;2024-01-11T03:50:12;28.95;;;17.10;;
22490;SDS011;11412;50.802;4.350;2024-01-11T03:52:38;29.10;;;17.58;;
22490;SDS011;11412;50.802;4.350;2024-01-11T03:55:04;30.70;;;17.08;;
22490;SDS011;11412;50.802;4.350;2024-01-11T03:57:31;33.28;;;18.02;;
22490;SDS011;11412;50.802;4.350;2024-01-11T03:59:56;29.35;;;17.25;;
22490;SDS011;11412;50.802;4.350;2024-01-11T04:02:23;30.85;;;17.60;;
22490;SDS011;11412;50.802;4.350;2024-01-11T04:04:49;30.48;;;16.70;;
22490;SDS011;11412;50.802;4.350;2024-01-11T04:07:15;32.35;;;17.50;;
22490;SDS011;11412;50.802;4.350;2024-01-11T04:09:42;28.08;;;17.35;;
22490;SDS011;11412;50.802;4.350;2024-01-11T04:12:08;29.38;;;17.90;;
22490;SDS011;11412;50.802;4.350;2024-01-11T04:14:33;30.08;;;17.65;;
22490;SDS011;11412;50.802;4.350;2024-01-11T04:17:03;31.05;;;17.65;;
22490;SDS011;11412;50.802;4.350;2024-01-11T04:19:29;29.90;;;17.65;;
22490;SDS011;11412;50.802;4.350;2024-01-11T04:21:55;30.33;;;17.73;;
22490;SDS011;11412;50.802;4.350;2024-01-11T04:24:20;32.17;;;17.42;;
22490;SDS011;11412;50.802;4.350;2024-01-11T04:26:46;30.65;;;17.60;;
22490;SDS011;11412;50.802;4.350;2024-01-11T04:29:12;31.30;;;17.67;;
22490;SDS011;11412;50.802;4.350;2024-01-11T04:31:37;31.95;;;17.90;;
22490;SDS011;11412;50.802;4.350;2024-01-11T04:34:03;32.72;;;17.95;;
22490;SDS011;11412;50.802;4.350;2024-01-11T04:36:29;32.25;;;17.77;;
22490;SDS011;11412;50.802;4.350;2024-01-11T04:38:54;35.22;;;18.35;;
22490;SDS011;11412;50.802;4.350;2024-01-11T04:41:20;30.60;;;17.58;;
22490;SDS011;11412;50.802;4.350;2024-01-11T04:43:46;33.35;;;17.42;;
22490;SDS011;11412;50.802;4.350;2024-01-11T04:46:19;29.40;;;17.30;;
22490;SDS011;11412;50.802;4.350;2024-01-11T04:48:45;31.10;;;18.48;;
22490;SDS011;11412;50.802;4.350;2024-01-11T04:51:13;29.42;;;17.25;;
22490;SDS011;11412;50.802;4.350;2024-01-11T04:53:39;31.42;;;16.67;;
22490;SDS011;11412;50.802;4.350;2024-01-11T04:56:09;30.83;;;17.83;;
22490;SDS011;11412;50.802;4.350;2024-01-11T04:58:36;34.45;;;18.33;;
22490;SDS011;11412;50.802;4.350;2024-01-11T05:01:11;33.70;;;17.98;;
22490;SDS011;11412;50.802;4.350;2024-01-11T05:03:38;29.90;;;17.83;;
22490;SDS011;11412;50.802;4.350;2024-01-11T05:06:03;34.03;;;18.60;;
22490;SDS011;11412;50.802;4.350;2024-01-11T05:08:29;32.10;;;18.15;;
22490;SDS011;11412;50.802;4.350;2024-01-11T05:10:55;31.05;;;17.15;;
22490;SDS011;11412;50.802;4.350;2024-01-11T05:13:22;28.73;;;17.48;;
22490;SDS011;11412;50.802;4.350;2024-01-11T05:15:47;29.20;;;17.05;;
22490;SDS011;11412;50.802;4.350;2024-01-11T05:18:13;28.50;;;18.08;;
22490;SDS011;11412;50.802;4.350;2024-01-11T05:20:39;31.80;;;17.95;;
22490;SDS011;11412;50.802;4.350;2024-01-11T05:23:05;32.05;;;18.27;;
22490;SDS011;11412;50.802;4.350;2024-01-11T05:25:31;32.38;;;18.92;;
22490;SDS011;11412;50.802;4.350;2024-01-11T05:28:02;28.33;;;17.35;;
22490;SDS011;11412;50.802;4.350;2024-01-11T05:30:28;31.75;;;18.25;;
22490;SDS011;11412;50.802;4.350;2024-01-11T05:32:55;33.15;;;18.70;;
22490;SDS011;11412;50.802;4.350;2024-01-11T05:35:21;32.13;;;19.00;;
22490;SDS011;11412;50.802;4.350;2024-01-11T05:37:49;31.90;;;17.60;;
22490;SDS011;11412;50.802;4.350;2024-01-11T05:40:15;32.65;;;16.80;;
22490;SDS011;11412;50.802;4.350;2024-01-11T05:42:41;31.70;;;18.10;;
22490;SDS011;11412;50.802;4.350;2024-01-11T05:45:07;27.35;;;17.70;;
22490;SDS011;11412;50.802;4.350;2024-01-11T05:47:33;26.63;;;17.20;;
22490;SDS011;11412;50.802;4.350;2024-01-11T05:49:58;30.67;;;18.58;;
22490;SDS011;11412;50.802;4.350;2024-01-11T05:52:24;32.03;;;18.35;;
22490;SDS011;11412;50.802;4.350;2024-01-11T05:54:50;31.23;;;18.08;;
22490;SDS011;11412;50.802;4.350;2024-01-11T05:57:16;32.80;;;18.35;;
22490;SDS011;11412;50.802;4.350;2024-01-11T05:59:44;31.40;;;18.65;;
22490;SDS011;11412;50.802;4.350;2024-01-11T06:02:11;32.40;;;19.10;;
22490;SDS011;11412;50.802;4.350;2024-01-11T06:04:37;30.73;;;18.95;;
22490;SDS011;11412;50.802;4.350;2024-01-11T06:07:03;33.63;;;18.52;;
22490;SDS011;11412;50.802;4.350;2024-01-11T06:09:29;34.30;;;18.90;;
22490;SDS011;11412;50.802;4.350;2024-01-11T06:11:54;31.17;;;18.80;;
22490;SDS011;11412;50.802;4.350;2024-01-11T06:14:20;33.03;;;18.63;;
22490;SDS011;11412;50.802;4.350;2024-01-11T06:16:46;33.25;;;19.67;;
22490;SDS011;11412;50.802;4.350;2024-01-11T06:19:11;34.97;;;20.42;;
22490;SDS011;11412;50.802;4.350;2024-01-11T06:21:37;34.13;;;19.40;;
22490;SDS011;11412;50.802;4.350;2024-01-11T06:24:03;33.20;;;19.40;;
22490;SDS011;11412;50.802;4.350;2024-01-11T06:26:29;35.40;;;18.48;;
22490;SDS011;11412;50.802;4.350;2024-01-11T06:28:55;35.95;;;19.60;;
22490;SDS011;11412;50.802;4.350;2024-01-11T06:31:21;33.38;;;19.83;;
22490;SDS011;11412;50.802;4.350;2024-01-11T06:33:46;30.90;;;18.15;;
22490;SDS011;11412;50.802;4.350;2024-01-11T06:36:12;35.67;;;20.38;;
22490;SDS011;11412;50.802;4.350;2024-01-11T06:38:38;34.75;;;19.58;;
22490;SDS011;11412;50.802;4.350;2024-01-11T06:41:04;33.17;;;19.52;;
22490;SDS011;11412;50.802;4.350;2024-01-11T06:43:31;38.92;;;20.50;;
22490;SDS011;11412;50.802;4.350;2024-01-11T06:46:01;29.92;;;19.17;;
22490;SDS011;11412;50.802;4.350;2024-01-11T06:48:30;33.83;;;19.77;;
22490;SDS011;11412;50.802;4.350;2024-01-11T06:50:57;32.90;;;19.20;;
22490;SDS011;11412;50.802;4.350;2024-01-11T06:53:23;38.95;;;20.25;;
22490;SDS011;11412;50.802;4.350;2024-01-11T06:55:48;33.95;;;19.90;;
22490;SDS011;11412;50.802;4.350;2024-01-11T06:58:15;33.53;;;19.85;;
22490;SDS011;11412;50.802;4.350;2024-01-11T07:00:41;32.75;;;19.23;;
22490;SDS011;11412;50.802;4.350;2024-01-11T07:03:11;32.95;;;19.60;;
22490;SDS011;11412;50.802;4.350;2024-01-11T07:05:37;34.45;;;20.25;;
22490;SDS011;11412;50.802;4.350;2024-01-11T07:08:03;37.67;;;20.15;;
22490;SDS011;11412;50.802;4.350;2024-01-11T07:10:29;34.47;;;19.83;;
22490;SDS011;11412;50.802;4.350;2024-01-11T07:12:55;34.17;;;19.08;;
22490;SDS011;11412;50.802;4.350;2024-01-11T07:15:20;35.92;;;21.40;;
22490;SDS011;11412;50.802;4.350;2024-01-11T07:17:46;33.05;;;19.63;;
22490;SDS011;11412;50.802;4.350;2024-01-11T07:20:12;37.72;;;20.98;;
22490;SDS011;11412;50.802;4.350;2024-01-11T07:22:40;34.47;;;21.17;;
22490;SDS011;11412;50.802;4.350;2024-01-11T07:25:06;41.53;;;21.27;;
22490;SDS011;11412;50.802;4.350;2024-01-11T07:27:32;39.78;;;21.17;;
22490;SDS011;11412;50.802;4.350;2024-01-11T07:29:57;36.08;;;20.23;;
22490;SDS011;11412;50.802;4.350;2024-01-11T07:32:23;33.88;;;20.60;;
22490;SDS011;11412;50.802;4.350;2024-01-11T07:34:49;35.42;;;20.45;;
22490;SDS011;11412;50.802;4.350;2024-01-11T07:37:14;37.58;;;20.92;;
22490;SDS011;11412;50.802;4.350;2024-01-11T07:39:40;39.10;;;20.75;;
22490;SDS011;11412;50.802;4.350;2024-01-11T07:42:06;40.90;;;21.50;;
22490;SDS011;11412;50.802;4.350;2024-01-11T07:44:31;31.80;;;20.30;;
22490;SDS011;11412;50.802;4.350;2024-01-11T07:46:57;35.03;;;20.80;;
22490;SDS011;11412;50.802;4.350;2024-01-11T07:49:23;33.08;;;21.15;;
22490;SDS011;11412;50.802;4.350;2024-01-11T07:51:48;33.63;;;20.58;;
22490;SDS011;11412;50.802;4.350;2024-01-11T07:54:14;38.38;;;20.67;;
22490;SDS011;11412;50.802;4.350;2024-01-11T07:56:40;31.90;;;19.30;;
22490;SDS011;11412;50.802;4.350;2024-01-11T07:59:05;37.30;;;20.23;;
22490;SDS011;11412;50.802;4.350;2024-01-11T08:01:31;39.35;;;23.33;;
22490;SDS011;11412;50.802;4.350;2024-01-11T08:03:59;39.63;;;20.80;;
22490;SDS011;11412;50.802;4.350;2024-01-11T08:06:27;37.95;;;22.02;;
22490;SDS011;11412;50.802;4.350;2024-01-11T08:08:53;36.55;;;21.10;;
22490;SDS011;11412;50.802;4.350;2024-01-11T08:11:19;32.75;;;20.17;;
22490;SDS011;11412;50.802;4.350;2024-01-11T08:13:45;38.10;;;20.95;;
22490;SDS011;11412;50.802;4.350;2024-01-11T08:16:15;39.55;;;20.88;;
22490;SDS011;11412;50.802;4.350;2024-01-11T08:18:41;38.13;;;20.48;;
22490;SDS011;11412;50.802;4.350;2024-01-11T08:21:09;41.78;;;23.08;;
22490;SDS011;11412;50.802;4.350;2024-01-11T08:23:37;34.17;;;20.75;;
22490;SDS011;11412;50.802;4.350;2024-01-11T08:26:11;38.10;;;20.80;;
22490;SDS011;11412;50.802;4.350;2024-01-11T08:28:40;38.08;;;21.02;;
22490;SDS011;11412;50.802;4.350;2024-01-11T08:31:06;34.38;;;21.92;;
22490;SDS011;11412;50.802;4.350;2024-01-11T08:33:32;38.72;;;21.67;;
22490;SDS011;11412;50.802;4.350;2024-01-11T08:35:58;43.67;;;22.63;;
22490;SDS011;11412;50.802;4.350;2024-01-11T08:38:24;38.58;;;20.80;;
22490;SDS011;11412;50.802;4.350;2024-01-11T08:40:50;41.42;;;22.10;;
22490;SDS011;11412;50.802;4.350;2024-01-11T08:43:16;37.60;;;21.48;;
22490;SDS011;11412;50.802;4.350;2024-01-11T08:45:42;38.08;;;21.73;;
22490;SDS011;11412;50.802;4.350;2024-01-11T08:48:08;35.70;;;22.17;;
22490;SDS011;11412;50.802;4.350;2024-01-11T08:50:38;43.63;;;23.75;;
22490;SDS011;11412;50.802;4.350;2024-01-11T08:53:03;34.95;;;21.27;;
22490;SDS011;11412;50.802;4.350;2024-01-11T08:55:29;35.13;;;21.48;;
22490;SDS011;11412;50.802;4.350;2024-01-11T08:57:54;40.25;;;23.65;;
22490;SDS011;11412;50.802;4.350;2024-01-11T09:00:20;43.17;;;22.88;;
22490;SDS011;11412;50.802;4.350;2024-01-11T09:02:46;37.35;;;22.58;;
22490;SDS011;11412;50.802;4.350;2024-01-11T09:05:13;39.08;;;22.83;;
22490;SDS011;11412;50.802;4.350;2024-01-11T09:07:39;36.42;;;22.45;;
22490;SDS011;11412;50.802;4.350;2024-01-11T09:10:06;37.95;;;21.60;;
22490;SDS011;11412;50.802;4.350;2024-01-11T09:12:34;41.13;;;23.08;;
22490;SDS011;11412;50.802;4.350;2024-01-11T09:15:00;35.70;;;21.58;;
22490;SDS011;11412;50.802;4.350;2024-01-11T09:17:25;38.72;;;23.75;;
22490;SDS011;11412;50.802;4.350;2024-01-11T09:19:51;49.70;;;22.10;;
22490;SDS011;11412;50.802;4.350;2024-01-11T09:22:17;39.03;;;22.45;;
22490;SDS011;11412;50.802;4.350;2024-01-11T09:24:43;41.00;;;22.00;;
22490;SDS011;11412;50.802;4.350;2024-01-11T09:27:08;38.83;;;22.77;;
22490;SDS011;11412;50.802;4.350;2024-01-11T09:29:34;37.28;;;21.95;;
22490;SDS011;11412;50.802;4.350;2024-01-11T09:32:00;37.25;;;21.58;;
22490;SDS011;11412;50.802;4.350;2024-01-11T09:34:26;37.63;;;23.17;;
22490;SDS011;11412;50.802;4.350;2024-01-11T09:36:51;35.67;;;20.45;;
22490;SDS011;11412;50.802;4.350;2024-01-11T09:39:17;36.38;;;21.17;;
22490;SDS011;11412;50.802;4.350;2024-01-11T09:41:47;35.05;;;21.13;;
22490;SDS011;11412;50.802;4.350;2024-01-11T09:44:22;44.42;;;23.77;;
22490;SDS011;11412;50.802;4.350;2024-01-11T09:46:49;35.03;;;20.85;;
22490;SDS011;11412;50.802;4.350;2024-01-11T09:49:15;36.38;;;20.40;;
22490;SDS011;11412;50.802;4.350;2024-01-11T09:51:42;33.95;;;20.13;;
22490;SDS011;11412;50.802;4.350;2024-01-11T09:54:09;33.58;;;20.60;;
22490;SDS011;11412;50.802;4.350;2024-01-11T09:56:35;39.33;;;20.25;;
22490;SDS011;11412;50.802;4.350;2024-01-11T09:59:02;33.33;;;19.20;;
22490;SDS011;11412;50.802;4.350;2024-01-11T10:01:31;33.65;;;19.30;;
22490;SDS011;11412;50.802;4.350;2024-01-11T10:03:57;32.47;;;19.15;;
22490;SDS011;11412;50.802;4.350;2024-01-11T10:06:23;31.23;;;18.98;;
22490;SDS011;11412;50.802;4.350;2024-01-11T10:08:51;34.58;;;19.35;;
22490;SDS011;11412;50.802;4.350;2024-01-11T10:11:17;32.90;;;20.25;;
22490;SDS011;11412;50.802;4.350;2024-01-11T10:13:42;36.03;;;18.92;;
22490;SDS011;11412;50.802;4.350;2024-01-11T10:16:08;31.38;;;18.58;;
22490;SDS011;11412;50.802;4.350;2024-01-11T10:18:35;35.85;;;20.38;;
22490;SDS011;11412;50.802;4.350;2024-01-11T10:21:02;44.13;;;20.20;;
22490;SDS011;11412;50.802;4.350;2024-01-11T10:23:28;38.97;;;19.15;;
22490;SDS011;11412;50.802;4.350;2024-01-11T10:25:55;36.33;;;20.58;;
22490;SDS011;11412;50.802;4.350;2024-01-11T10:28:22;34.88;;;19.73;;
22490;SDS011;11412;50.802;4.350;2024-01-11T10:30:50;35.47;;;20.17;;
22490;SDS011;11412;50.802;4.350;2024-01-11T10:33:19;36.55;;;19.63;;
22490;SDS011;11412;50.802;4.350;2024-01-11T10:35:46;37.67;;;19.40;;
22490;SDS011;11412;50.802;4.350;2024-01-11T10:38:14;29.67;;;18.15;;
22490;SDS011;11412;50.802;4.350;2024-01-11T10:40:40;31.13;;;18.35;;
22490;SDS011;11412;50.802;4.350;2024-01-11T10:43:07;32.40;;;18.95;;
22490;SDS011;11412;50.802;4.350;2024-01-11T10:45:38;36.17;;;19.50;;
22490;SDS011;11412;50.802;4.350;2024-01-11T10:48:07;34.10;;;19.23;;
22490;SDS011;11412;50.802;4.350;2024-01-11T10:50:43;31.90;;;19.58;;
22490;SDS011;11412;50.802;4.350;2024-01-11T10:53:28;31.88;;;18.95;;
22490;SDS011;11412;50.802;4.350;2024-01-11T10:56:06;33.97;;;20.00;;
22490;SDS011;11412;50.802;4.350;2024-01-11T10:58:33;33.72;;;19.20;;
22490;SDS011;11412;50.802;4.350;2024-01-11T11:01:00;34.63;;;19.30;;
22490;SDS011;11412;50.802;4.350;2024-01-11T11:03:27;33.78;;;18.52;;
22490;SDS011;11412;50.802;4.350;2024-01-11T11:05:57;38.55;;;19.85;;
22490;SDS011;11412;50.802;4.350;2024-01-11T11:08:24;37.38;;;20.73;;
22490;SDS011;11412;50.802;4.350;2024-01-11T11:10:55;35.92;;;19.13;;
22490;SDS011;11412;50.802;4.350;2024-01-11T11:13:24;34.42;;;19.83;;
22490;SDS011;11412;50.802;4.350;2024-01-11T11:15:51;37.55;;;20.23;;
22490;SDS011;11412;50.802;4.350;2024-01-11T11:18:18;33.78;;;19.80;;
22490;SDS011;11412;50.802;4.350;2024-01-11T11:20:45;32.97;;;18.88;;
22490;SDS011;11412;50.802;4.350;2024-01-11T11:23:13;38.67;;;21.20;;
22490;SDS011;11412;50.802;4.350;2024-01-11T11:25:42;37.03;;;20.38;;
22490;SDS011;11412;50.802;4.350;2024-01-11T11:28:13;34.58;;;19.48;;
22490;SDS011;11412;50.802;4.350;2024-01-11T11:30:40;39.92;;;21.58;;
22490;SDS011;11412;50.802;4.350;2024-01-11T11:33:11;33.63;;;21.13;;
22490;SDS011;11412;50.802;4.350;2024-01-11T11:35:48;35.65;;;21.98;;
22490;SDS011;11412;50.802;4.350;2024-01-11T11:38:20;38.67;;;21.08;;
22490;SDS011;11412;50.802;4.350;2024-01-11T11:40:47;36.17;;;20.50;;
22490;SDS011;11412;50.802;4.350;2024-01-11T11:43:15;30.95;;;19.38;;
22490;SDS011;11412;50.802;4.350;2024-01-11T11:45:42;34.17;;;19.83;;
22490;SDS011;11412;50.802;4.350;2024-01-11T11:51:13;35.72;;;21.13;;
22490;SDS011;11412;50.802;4.350;2024-01-11T11:53:41;32.83;;;20.02;;
22490;SDS011;11412;50.802;4.350;2024-01-11T11:56:07;33.08;;;19.15;;
22490;SDS011;11412;50.802;4.350;2024-01-11T11:58:42;34.47;;;20.70;;
22490;SDS011;11412;50.802;4.350;2024-01-11T12:01:09;30.20;;;19.63;;
22490;SDS011;11412;50.802;4.350;2024-01-11T12:03:35;31.05;;;19.08;;
22490;SDS011;11412;50.802;4.350;2024-01-11T12:06:05;32.10;;;19.58;;
22490;SDS011;11412;50.802;4.350;2024-01-11T12:08:33;30.40;;;18.85;;
22490;SDS011;11412;50.802;4.350;2024-01-11T12:11:00;36.33;;;18.55;;
22490;SDS011;11412;50.802;4.350;2024-01-11T12:13:26;30.10;;;17.63;;
22490;SDS011;11412;50.802;4.350;2024-01-11T12:15:52;29.45;;;18.13;;
22490;SDS011;11412;50.802;4.350;2024-01-11T12:18:18;32.35;;;18.35;;
22490;SDS011;11412;50.802;4.350;2024-01-11T12:20:44;26.85;;;17.05;;
22490;SDS011;11412;50.802;4.350;2024-01-11T12:23:11;27.05;;;16.35;;
22490;SDS011;11412;50.802;4.350;2024-01-11T12:25:39;29.23;;;17.13;;
22490;SDS011;11412;50.802;4.350;2024-01-11T12:28:05;26.63;;;16.10;;
22490;SDS011;11412;50.802;4.350;2024-01-11T12:30:31;26.50;;;16.02;;
22490;SDS011;11412;50.802;4.350;2024-01-11T12:32:58;28.58;;;15.40;;
22490;SDS011;11412;50.802;4.350;2024-01-11T12:35:26;29.15;;;16.83;;
22490;SDS011;11412;50.802;4.350;2024-01-11T12:37:58;26.77;;;15.20;;
22490;SDS011;11412;50.802;4.350;2024-01-11T12:40:25;26.52;;;15.82;;
22490;SDS011;11412;50.802;4.350;2024-01-11T12:42:52;28.50;;;15.48;;
22490;SDS011;11412;50.802;4.350;2024-01-11T12:45:19;25.33;;;14.82;;
22490;SDS011;11412;50.802;4.350;2024-01-11T12:47:45;22.83;;;14.32;;
22490;SDS011;11412;50.802;4.350;2024-01-11T12:50:11;27.08;;;15.27;;
22490;SDS011;11412;50.802;4.350;2024-01-11T12:52:40;27.40;;;15.13;;
22490;SDS011;11412;50.802;4.350;2024-01-11T12:55:17;24.35;;;14.77;;
22490;SDS011;11412;50.802;4.350;2024-01-11T12:57:43;28.95;;;16.25;;
22490;SDS011;11412;50.802;4.350;2024-01-11T13:00:10;24.50;;;15.45;;
22490;SDS011;11412;50.802;4.350;2024-01-11T13:02:36;24.55;;;14.27;;
22490;SDS011;11412;50.802;4.350;2024-01-11T13:05:03;28.25;;;16.00;;
22490;SDS011;11412;50.802;4.350;2024-01-11T13:07:30;24.95;;;13.95;;
22490;SDS011;11412;50.802;4.350;2024-01-11T13:09:56;24.05;;;15.13;;
22490;SDS011;11412;50.802;4.350;2024-01-11T13:12:21;26.27;;;15.20;;
22490;SDS011;11412;50.802;4.350;2024-01-11T13:14:47;23.25;;;14.43;;
22490;SDS011;11412;50.802;4.350;2024-01-11T13:17:13;29.33;;;14.70;;
22490;SDS011;11412;50.802;4.350;2024-01-11T13:19:39;23.33;;;14.38;;
22490;SDS011;11412;50.802;4.350;2024-01-11T13:22:05;19.50;;;13.68;;
22490;SDS011;11412;50.802;4.350;2024-01-11T13:24:31;21.17;;;13.48;;
22490;SDS011;11412;50.802;4.350;2024-01-11T13:26:56;27.33;;;14.40;;
22490;SDS011;11412;50.802;4.350;2024-01-11T13:29:22;23.48;;;14.38;;
22490;SDS011;11412;50.802;4.350;2024-01-11T13:31:48;23.70;;;14.27;;
22490;SDS011;11412;50.802;4.350;2024-01-11T13:34:13;24.27;;;14.32;;
22490;SDS011;11412;50.802;4.350;2024-01-11T13:36:39;25.02;;;13.60;;
22490;SDS011;11412;50.802;4.350;2024-01-11T13:39:05;25.63;;;14.10;;
22490;SDS011;11412;50.802;4.350;2024-01-11T13:41:33;22.02;;;12.85;;
22490;SDS011;11412;50.802;4.350;2024-01-11T13:43:59;21.75;;;13.05;;
22490;SDS011;11412;50.802;4.350;2024-01-11T13:46:25;20.20;;;14.15;;
22490;SDS011;11412;50.802;4.350;2024-01-11T13:48:50;18.48;;;12.60;;
22490;SDS011;11412;50.802;4.350;2024-01-11T13:51:16;29.85;;;14.15;;
22490;SDS011;11412;50.802;4.350;2024-01-11T13:53:42;22.42;;;13.20;;
22490;SDS011;11412;50.802;4.350;2024-01-11T13:56:08;19.02;;;12.63;;
22490;SDS011;11412;50.802;4.350;2024-01-11T13:58:34;17.58;;;12.15;;
22490;SDS011;11412;50.802;4.350;2024-01-11T14:01:00;17.70;;;12.10;;
22490;SDS011;11412;50.802;4.350;2024-01-11T14:03:26;23.10;;;13.20;;
22490;SDS011;11412;50.802;4.350;2024-01-11T14:05:51;22.27;;;13.05;;
22490;SDS011;11412;50.802;4.350;2024-01-11T14:08:17;24.17;;;13.13;;
22490;SDS011;11412;50.802;4.350;2024-01-11T14:10:43;25.70;;;13.43;;
22490;SDS011;11412;50.802;4.350;2024-01-11T14:13:09;22.80;;;14.15;;
22490;SDS011;11412;50.802;4.350;2024-01-11T14:15:34;19.98;;;12.43;;
22490;SDS011;11412;50.802;4.350;2024-01-11T14:18:00;22.92;;;13.00;;
22490;SDS011;11412;50.802;4.350;2024-01-11T14:20:26;19.60;;;12.38;;